createdAt,value
2023-01-25T00:02:06.920Z,15.80
2023-01-25T00:04:36.413Z,19.45
2023-01-25T00:07:06.499Z,21.25
2023-01-25T00:09:35.733Z,17.05
2023-01-25T00:12:05.678Z,21.15
2023-01-25T00:14:39.333Z,20.60
2023-01-25T00:17:11.522Z,16.05
2023-01-25T00:19:41.345Z,16.00
2023-01-25T00:22:10.954Z,17.75
2023-01-25T00:24:44.312Z,25.15
2023-01-25T00:27:15.787Z,18.33
2023-01-25T00:29:45.814Z,20.55
2023-01-25T00:32:54.597Z,18.25
2023-01-25T00:35:25.932Z,18.80
2023-01-25T00:37:56.496Z,15.88
2023-01-25T00:40:28.609Z,18.65
2023-01-25T00:43:01.963Z,16.70
2023-01-25T00:45:36.842Z,17.20
2023-01-25T00:48:11.989Z,21.15
2023-01-25T00:50:50.969Z,13.00
2023-01-25T00:53:37.372Z,20.35
2023-01-25T00:56:15.733Z,19.98
2023-01-25T00:58:51.565Z,19.73
2023-01-25T01:01:31.017Z,15.32
2023-01-25T01:04:15.557Z,18.20
2023-01-25T01:06:50.062Z,17.08
2023-01-25T01:09:20.830Z,16.98
2023-01-25T01:11:52.708Z,22.15
2023-01-25T01:14:24.940Z,18.45
2023-01-25T01:16:57.237Z,19.73
2023-01-25T01:19:28.158Z,19.83
2023-01-25T01:21:59.221Z,14.35
2023-01-25T01:24:31.737Z,15.13
2023-01-25T01:27:02.011Z,20.77
2023-01-25T01:29:32.850Z,17.15
2023-01-25T01:32:02.774Z,17.75
2023-01-25T01:34:32.485Z,23.05
2023-01-25T01:37:03.551Z,18.90
2023-01-25T01:39:33.123Z,18.73
2023-01-25T01:42:02.788Z,18.52
2023-01-25T01:44:48.907Z,21.50
2023-01-25T01:47:23.463Z,20.23
2023-01-25T01:50:00.939Z,19.67
2023-01-25T01:52:37.309Z,20.02
2023-01-25T01:55:14.842Z,18.13
2023-01-25T01:57:50.458Z,18.25
2023-01-25T02:00:24.721Z,21.45
2023-01-25T02:02:54.224Z,24.83
2023-01-25T02:05:29.468Z,21.80
2023-01-25T02:08:00.874Z,20.20
2023-01-25T02:10:33.011Z,22.92
2023-01-25T02:13:05.793Z,19.80
2023-01-25T02:15:46.745Z,25.63
2023-01-25T02:18:19.295Z,21.70
2023-01-25T02:20:52.168Z,21.20
2023-01-25T02:23:29.630Z,19.60
2023-01-25T02:26:03.371Z,19.77
2023-01-25T02:28:38.507Z,20.77
2023-01-25T02:31:20.486Z,20.38
2023-01-25T02:33:54.699Z,17.67
2023-01-25T02:36:29.956Z,24.98
2023-01-25T02:39:04.526Z,22.45
2023-01-25T02:41:41.289Z,20.98
2023-01-25T02:44:20.491Z,23.08
2023-01-25T02:46:55.860Z,27.27
2023-01-25T02:49:31.668Z,23.92
2023-01-25T02:52:02.769Z,25.48
2023-01-25T02:54:37.694Z,23.45
2023-01-25T03:01:27.015Z,20.65
2023-01-25T03:03:57.525Z,22.05
2023-01-25T03:06:36.042Z,24.05
2023-01-25T03:09:07.704Z,19.83
2023-01-25T03:11:38.422Z,28.15
2023-01-25T03:14:08.195Z,18.25
2023-01-25T03:16:39.218Z,21.30
2023-01-25T03:19:09.057Z,29.48
2023-01-25T03:21:38.536Z,26.05
2023-01-25T03:24:11.090Z,26.48
2023-01-25T03:27:03.588Z,24.00
2023-01-25T03:29:51.883Z,23.63
2023-01-25T03:32:28.889Z,19.48
2023-01-25T03:35:04.358Z,22.77
2023-01-25T03:37:34.374Z,21.45
2023-01-25T03:40:04.155Z,22.25
2023-01-25T03:42:36.323Z,26.30
2023-01-25T03:45:10.145Z,20.67
2023-01-25T03:47:44.018Z,23.38
2023-01-25T03:50:13.830Z,28.88
2023-01-25T03:52:48.215Z,27.90
2023-01-25T03:55:18.382Z,27.73
2023-01-25T03:57:50.633Z,25.35
2023-01-25T04:00:29.149Z,19.90
2023-01-25T04:03:07.090Z,23.45
2023-01-25T04:05:43.895Z,27.05
2023-01-25T04:08:14.168Z,29.80
2023-01-25T04:10:43.629Z,27.08
2023-01-25T04:13:13.453Z,26.25
2023-01-25T04:15:42.992Z,28.30
2023-01-25T04:18:23.173Z,33.75
2023-01-25T04:20:57.076Z,29.20
2023-01-25T04:23:27.859Z,28.20
2023-01-25T04:25:58.245Z,27.20
2023-01-25T04:28:28.465Z,26.75
2023-01-25T04:30:58.947Z,25.60
2023-01-25T04:33:35.912Z,22.88
2023-01-25T04:36:06.770Z,31.73
2023-01-25T04:38:37.078Z,29.40
2023-01-25T04:41:07.466Z,23.77
2023-01-25T04:43:37.133Z,29.23
2023-01-25T04:46:13.599Z,25.42
2023-01-25T04:48:44.680Z,27.52
2023-01-25T04:51:14.505Z,27.42
2023-01-25T04:53:44.411Z,24.02
2023-01-25T04:56:14.327Z,32.20
2023-01-25T04:58:50.553Z,39.35
2023-01-25T05:01:21.186Z,30.67
2023-01-25T05:03:55.388Z,27.98
2023-01-25T05:06:37.737Z,29.63
2023-01-25T05:09:09.197Z,28.15
2023-01-25T05:11:39.448Z,26.88
2023-01-25T05:14:37.753Z,25.50
2023-01-25T05:17:14.851Z,25.65
2023-01-25T05:19:49.882Z,27.90
2023-01-25T05:22:24.700Z,28.45
2023-01-25T05:24:57.271Z,30.30
2023-01-25T05:27:26.779Z,23.40
2023-01-25T05:29:56.641Z,23.15
2023-01-25T05:32:35.864Z,26.83
2023-01-25T05:35:07.535Z,28.25
2023-01-25T05:37:42.000Z,27.95
2023-01-25T05:40:21.052Z,25.48
2023-01-25T05:42:58.242Z,23.55
2023-01-25T05:45:39.923Z,25.63
2023-01-25T05:48:16.881Z,26.85
2023-01-25T05:50:50.879Z,24.30
2023-01-25T05:53:28.211Z,23.38
2023-01-25T05:55:59.161Z,22.80
2023-01-25T05:58:28.565Z,22.65
2023-01-25T06:01:01.897Z,23.52
2023-01-25T06:03:49.571Z,29.30
2023-01-25T06:06:27.380Z,24.75
2023-01-25T06:09:14.519Z,19.92
2023-01-25T06:11:50.990Z,26.48
2023-01-25T06:14:24.457Z,15.07
2023-01-25T06:16:57.109Z,22.95
2023-01-25T06:19:50.095Z,19.25
2023-01-25T06:22:41.181Z,22.75
2023-01-25T06:25:12.560Z,26.58
2023-01-25T06:27:46.496Z,23.40
2023-01-25T06:30:20.805Z,24.15
2023-01-25T06:32:53.105Z,21.83
2023-01-25T06:35:28.078Z,17.40
2023-01-25T06:38:02.116Z,18.83
2023-01-25T06:40:31.705Z,23.92
2023-01-25T06:43:08.715Z,19.27
2023-01-25T06:45:38.482Z,17.55
2023-01-25T06:48:08.019Z,20.38
2023-01-25T06:50:37.385Z,18.05
2023-01-25T06:53:08.687Z,20.30
2023-01-25T06:55:38.237Z,19.13
2023-01-25T06:58:07.640Z,15.68
2023-01-25T07:00:37.736Z,14.27
2023-01-25T07:03:07.393Z,15.35
2023-01-25T07:05:36.780Z,27.23
2023-01-25T07:08:08.007Z,14.85
2023-01-25T07:10:37.519Z,19.92
2023-01-25T07:13:07.316Z,19.10
2023-01-25T07:15:36.987Z,15.02
2023-01-25T07:18:15.956Z,20.70
2023-01-25T07:20:46.085Z,26.52
2023-01-25T07:23:22.742Z,17.70
2023-01-25T07:25:53.099Z,22.17
2023-01-25T07:28:23.004Z,16.92
2023-01-25T07:30:52.927Z,26.55
2023-01-25T07:33:22.511Z,23.30
2023-01-25T07:35:51.981Z,24.38
2023-01-25T07:38:22.626Z,20.80
2023-01-25T07:40:54.404Z,21.30
2023-01-25T07:43:23.833Z,24.85
2023-01-25T07:45:54.490Z,24.95
2023-01-25T07:48:25.339Z,20.00
2023-01-25T07:51:11.694Z,24.05
2023-01-25T07:53:43.491Z,25.95
2023-01-25T07:56:15.141Z,21.30
2023-01-25T07:58:45.236Z,23.10
2023-01-25T08:01:21.621Z,21.45
2023-01-25T08:03:52.766Z,21.83
2023-01-25T08:06:31.901Z,19.55
2023-01-25T08:09:08.533Z,22.05
2023-01-25T08:11:46.327Z,22.13
2023-01-25T08:14:51.204Z,21.85
2023-01-25T08:17:53.887Z,24.15
2023-01-25T08:20:31.715Z,21.98
2023-01-25T08:23:01.376Z,19.35
2023-01-25T08:25:36.641Z,17.90
2023-01-25T08:28:08.483Z,20.90
2023-01-25T08:30:45.797Z,18.50
2023-01-25T08:33:21.805Z,22.77
2023-01-25T08:36:06.466Z,22.38
2023-01-25T08:38:58.625Z,22.13
2023-01-25T08:41:59.721Z,24.33
2023-01-25T08:44:43.023Z,28.13
2023-01-25T08:47:21.697Z,25.00
2023-01-25T08:50:10.734Z,40.05
2023-01-25T08:53:55.749Z,25.88
2023-01-25T08:56:54.816Z,21.00
2023-01-25T09:18:41.087Z,25.73
2023-01-25T09:21:49.291Z,25.50
2023-01-25T09:28:39.502Z,25.85
2023-01-25T09:35:32.909Z,25.95
2023-01-25T09:39:11.325Z,23.33
2023-01-25T09:42:56.915Z,22.45
2023-01-25T09:45:46.939Z,26.25
2023-01-25T09:49:08.350Z,22.30
2023-01-25T09:52:46.333Z,23.42
2023-01-25T09:56:20.066Z,25.52
2023-01-25T09:59:22.724Z,22.75
2023-01-25T10:03:04.698Z,24.42
2023-01-25T10:31:20.216Z,27.10
2023-01-25T10:34:56.765Z,24.88
2023-01-25T10:41:48.226Z,24.80
2023-01-25T10:44:35.315Z,26.58
2023-01-25T10:47:30.590Z,29.63
2023-01-25T10:50:01.275Z,30.73
2023-01-25T10:52:32.196Z,25.35
2023-01-25T10:55:16.309Z,23.13
2023-01-25T10:57:49.552Z,26.52
2023-01-25T11:00:30.158Z,25.15
2023-01-25T11:03:01.486Z,21.92
2023-01-25T11:05:34.780Z,26.75
2023-01-25T11:08:24.658Z,24.50
2023-01-25T11:10:55.153Z,27.15
2023-01-25T11:13:27.246Z,27.95
2023-01-25T11:16:27.206Z,28.60
2023-01-25T11:19:01.287Z,49.03
2023-01-25T11:21:35.404Z,29.58
2023-01-25T11:24:18.523Z,29.58
2023-01-25T11:26:48.993Z,27.42
2023-01-25T11:29:20.400Z,32.45
2023-01-25T11:31:53.926Z,33.78
2023-01-25T11:34:28.767Z,27.00
2023-01-25T11:37:16.151Z,32.83
2023-01-25T11:40:01.311Z,29.60
2023-01-25T11:42:43.569Z,29.05
2023-01-25T11:45:35.103Z,36.15
2023-01-25T11:48:18.367Z,30.60
2023-01-25T11:51:00.025Z,27.00
2023-01-25T11:53:51.960Z,30.98
2023-01-25T11:56:34.207Z,31.08
2023-01-25T11:59:35.174Z,31.25
2023-01-25T12:02:21.099Z,29.38
2023-01-25T12:05:16.202Z,24.27
2023-01-25T12:08:02.041Z,29.40
2023-01-25T12:10:45.005Z,29.30
2023-01-25T12:13:29.360Z,29.30
2023-01-25T12:16:22.584Z,35.33
2023-01-25T12:42:16.550Z,30.73
2023-01-25T12:53:35.470Z,41.88
2023-01-25T12:56:55.095Z,31.75
2023-01-25T13:16:44.360Z,36.42
2023-01-25T13:19:24.185Z,39.33
2023-01-25T13:21:56.865Z,39.60
2023-01-25T13:24:34.665Z,30.38
2023-01-25T13:27:07.350Z,37.55
2023-01-25T13:30:03.528Z,36.00
2023-01-25T13:33:10.605Z,38.10
2023-01-25T13:35:43.189Z,35.63
2023-01-25T13:38:32.521Z,38.08
2023-01-25T13:41:20.250Z,30.75
2023-01-25T13:43:56.179Z,32.90
2023-01-25T13:46:27.904Z,30.85
2023-01-25T13:49:08.728Z,30.17
2023-01-25T13:51:42.679Z,31.00
2023-01-25T13:54:18.213Z,28.38
2023-01-25T13:56:47.705Z,33.00
2023-01-25T13:59:27.759Z,31.00
2023-01-25T14:01:58.507Z,29.20
2023-01-25T14:04:30.608Z,37.25
2023-01-25T14:07:03.089Z,29.70
2023-01-25T14:09:56.163Z,31.52
2023-01-25T14:13:13.248Z,45.63
2023-01-25T14:16:06.358Z,35.95
2023-01-25T14:18:38.865Z,38.13
2023-01-25T14:21:17.663Z,33.72
2023-01-25T14:30:50.134Z,30.33
2023-01-25T14:42:52.707Z,35.35
2023-01-25T14:49:14.326Z,27.67
2023-01-25T14:51:47.826Z,33.88
2023-01-25T14:59:58.166Z,29.83
2023-01-25T15:03:54.906Z,27.58
2023-01-25T15:07:18.313Z,31.35
2023-01-25T15:16:56.445Z,26.55
2023-01-25T15:19:29.225Z,22.55
2023-01-25T15:22:01.986Z,30.20
2023-01-25T15:24:31.989Z,33.58
2023-01-25T15:27:03.610Z,32.90
2023-01-25T15:29:33.498Z,29.48
2023-01-25T15:32:03.121Z,33.55
2023-01-25T15:34:33.680Z,29.08
2023-01-25T15:37:56.912Z,36.25
2023-01-25T15:47:41.638Z,28.70
2023-01-25T15:50:21.882Z,29.50
2023-01-25T15:52:53.105Z,29.42
2023-01-25T15:55:22.495Z,37.17
2023-01-25T15:57:51.737Z,37.20
2023-01-25T16:00:23.243Z,31.70
2023-01-25T16:02:52.766Z,26.27
2023-01-25T16:05:23.207Z,29.17
2023-01-25T16:07:54.020Z,33.97
2023-01-25T16:10:25.774Z,20.75
2023-01-25T16:12:55.010Z,25.02
2023-01-25T16:15:26.547Z,35.50
2023-01-25T16:17:56.078Z,30.02
2023-01-25T16:20:25.922Z,31.40
2023-01-25T16:23:05.726Z,23.92
2023-01-25T16:26:25.884Z,28.73
2023-01-25T16:28:59.124Z,32.42
2023-01-25T16:31:34.564Z,32.13
2023-01-25T16:34:12.021Z,27.40
2023-01-25T16:36:41.511Z,35.38
2023-01-25T16:39:20.083Z,26.77
2023-01-25T16:46:57.536Z,39.17
2023-01-25T16:50:05.575Z,24.40
2023-01-25T16:57:01.791Z,29.60
2023-01-25T17:00:03.345Z,30.00
2023-01-25T17:02:38.615Z,24.23
2023-01-25T17:05:28.063Z,29.10
2023-01-25T17:08:06.188Z,28.95
2023-01-25T17:11:53.870Z,25.33
2023-01-25T17:14:40.462Z,23.50
2023-01-25T17:17:29.997Z,27.20
2023-01-25T17:19:59.502Z,31.70
2023-01-25T17:22:34.054Z,29.95
2023-01-25T17:25:04.415Z,24.45
2023-01-25T17:27:37.212Z,34.80
2023-01-25T17:30:14.246Z,26.42
2023-01-25T17:33:06.550Z,29.00
2023-01-25T17:49:45.954Z,30.27
2023-01-25T18:01:27.727Z,23.52
2023-01-25T19:56:07.606Z,28.13
2023-01-25T19:58:39.835Z,25.23
2023-01-25T20:01:09.972Z,24.85
2023-01-25T20:03:39.941Z,23.85
2023-01-25T20:06:10.957Z,29.27
2023-01-25T20:08:42.233Z,25.15
2023-01-25T20:11:14.959Z,21.75
2023-01-25T20:13:45.082Z,32.15
2023-01-25T20:16:17.286Z,22.67
2023-01-25T20:18:47.660Z,28.25
2023-01-25T20:21:19.515Z,25.08
2023-01-25T20:23:50.594Z,18.55
2023-01-25T20:26:23.251Z,23.20
2023-01-25T20:28:54.351Z,19.67
2023-01-25T20:31:25.229Z,21.83
2023-01-25T20:33:57.600Z,27.10
2023-01-25T20:36:28.853Z,21.77
2023-01-25T20:38:58.470Z,28.88
2023-01-25T20:41:29.711Z,23.42
2023-01-25T20:44:02.062Z,26.45
2023-01-25T20:46:34.041Z,21.10
2023-01-25T20:49:04.155Z,18.52
2023-01-25T20:51:34.102Z,20.75
2023-01-25T20:54:03.429Z,23.73
2023-01-25T20:56:34.532Z,23.05
2023-01-25T20:59:04.397Z,19.33
2023-01-25T21:01:37.288Z,17.65
2023-01-25T21:04:09.825Z,20.38
2023-01-25T21:06:39.607Z,19.77
2023-01-25T21:09:09.004Z,18.85
2023-01-25T21:11:39.823Z,19.15
2023-01-25T21:14:09.140Z,25.63
2023-01-25T21:16:38.454Z,20.55
2023-01-25T21:19:08.675Z,23.00
2023-01-25T21:21:38.719Z,17.02
2023-01-25T21:24:08.724Z,27.38
2023-01-25T21:26:39.415Z,20.38
2023-01-25T21:29:09.276Z,20.95
2023-01-25T21:31:42.554Z,21.40
2023-01-25T21:34:12.306Z,20.10
2023-01-25T21:36:41.797Z,20.90
2023-01-25T21:39:11.221Z,20.88
2023-01-25T21:41:41.849Z,19.13
2023-01-25T21:44:29.664Z,22.27
2023-01-25T21:50:05.360Z,22.88
2023-01-25T21:52:36.469Z,22.40
2023-01-25T21:55:06.109Z,20.23
2023-01-25T21:57:37.007Z,20.25
2023-01-25T22:00:07.354Z,21.92
2023-01-25T22:02:36.650Z,15.20
2023-01-25T22:05:06.257Z,17.20
2023-01-25T22:07:35.484Z,16.63
2023-01-25T22:10:04.945Z,23.65
2023-01-25T22:12:35.595Z,21.88
2023-01-25T22:15:05.099Z,23.05
2023-01-25T22:17:34.316Z,22.85
2023-01-25T22:20:03.681Z,16.67
2023-01-25T22:22:32.848Z,21.77
2023-01-25T22:25:02.151Z,18.67
2023-01-25T22:27:45.886Z,27.30
2023-01-25T22:30:15.582Z,22.95
2023-01-25T22:32:45.812Z,20.75
2023-01-25T22:35:15.037Z,21.80
2023-01-25T22:37:44.334Z,16.52
2023-01-25T22:40:14.452Z,24.90
2023-01-25T22:42:45.208Z,19.33
2023-01-25T22:45:14.661Z,22.65
2023-01-25T22:47:45.278Z,19.70
2023-01-25T22:50:14.515Z,22.30
2023-01-25T22:52:43.717Z,19.15
2023-01-25T22:55:13.155Z,20.23
2023-01-25T22:57:44.064Z,21.05
2023-01-25T23:00:14.938Z,25.98
2023-01-25T23:02:44.388Z,25.08
2023-01-25T23:05:14.004Z,17.50
2023-01-25T23:07:43.274Z,24.17
2023-01-25T23:10:13.254Z,19.92
2023-01-25T23:12:44.091Z,19.92
2023-01-25T23:15:15.743Z,22.23
2023-01-25T23:18:02.640Z,18.98
2023-01-25T23:20:32.218Z,18.98
2023-01-25T23:23:01.337Z,21.08
2023-01-25T23:25:31.783Z,23.80
2023-01-25T23:28:02.319Z,23.83
2023-01-25T23:30:31.638Z,17.88
2023-01-25T23:33:00.829Z,23.80
2023-01-25T23:35:30.039Z,18.00
2023-01-25T23:38:38.196Z,22.35
2023-01-25T23:41:08.101Z,21.73
2023-01-25T23:43:39.593Z,32.83
2023-01-25T23:46:09.079Z,20.52
2023-01-25T23:48:38.824Z,22.58
2023-01-25T23:51:08.132Z,22.17
2023-01-25T23:53:37.492Z,25.15
2023-01-25T23:56:08.899Z,24.67
2023-01-25T23:58:40.641Z,20.40
